createdAt,value
2022-11-02T00:00:13.974Z,5.49
2022-11-02T00:01:41.031Z,4.91
2022-11-02T00:03:02.778Z,4.91
2022-11-02T00:04:24.340Z,5.14
2022-11-02T00:05:45.453Z,5.19
2022-11-02T00:07:06.804Z,5.32
2022-11-02T00:08:28.131Z,4.62
2022-11-02T00:09:50.080Z,5.21
2022-11-02T00:11:11.688Z,4.89
2022-11-02T00:12:33.073Z,4.86
2022-11-02T00:13:54.402Z,5.09
2022-11-02T00:15:16.340Z,5.10
2022-11-02T00:16:38.580Z,5.47
2022-11-02T00:19:12.519Z,5.17
2022-11-02T00:20:35.702Z,4.81
2022-11-02T00:23:17.891Z,5.28
2022-11-02T00:24:39.433Z,5.29
2022-11-02T00:26:02.490Z,5.36
2022-11-02T00:27:23.856Z,5.01
2022-11-02T00:28:45.008Z,5.66
2022-11-02T00:30:08.088Z,5.77
2022-11-02T00:31:29.487Z,5.42
2022-11-02T00:32:50.958Z,5.26
2022-11-02T00:34:12.181Z,5.33
2022-11-02T00:35:34.255Z,5.18
2022-11-02T00:36:55.828Z,5.75
2022-11-02T00:38:17.128Z,5.42
2022-11-02T00:39:38.134Z,5.63
2022-11-02T00:40:59.422Z,5.82
2022-11-02T00:42:20.905Z,5.57
2022-11-02T00:43:42.385Z,5.70
2022-11-02T00:45:03.930Z,5.55
2022-11-02T00:46:25.244Z,6.16
2022-11-02T00:47:46.536Z,5.69
2022-11-02T00:49:07.977Z,5.55
2022-11-02T00:50:29.594Z,5.63
2022-11-02T00:51:50.924Z,5.44
2022-11-02T00:53:12.163Z,5.58
2022-11-02T00:54:33.081Z,5.72
2022-11-02T00:55:55.534Z,5.69
2022-11-02T00:57:16.579Z,5.31
2022-11-02T00:58:38.119Z,5.71
2022-11-02T00:59:59.393Z,5.34
2022-11-02T01:01:20.439Z,5.82
2022-11-02T01:02:41.834Z,6.29
2022-11-02T01:04:03.450Z,5.80
2022-11-02T01:05:26.019Z,5.98
2022-11-02T01:06:47.707Z,5.77
2022-11-02T01:08:08.992Z,6.10
2022-11-02T01:09:30.323Z,5.73
2022-11-02T01:10:54.432Z,5.68
2022-11-02T01:12:15.714Z,6.31
2022-11-02T01:13:36.698Z,6.43
2022-11-02T01:14:57.851Z,6.80
2022-11-02T01:16:19.385Z,6.65
2022-11-02T01:17:40.616Z,6.86
2022-11-02T01:19:02.207Z,6.20
2022-11-02T01:20:23.641Z,5.80
2022-11-02T01:21:45.372Z,6.13
2022-11-02T01:23:06.994Z,6.46
2022-11-02T01:24:28.811Z,6.07
2022-11-02T01:25:51.597Z,6.24
2022-11-02T01:27:12.834Z,6.13
2022-11-02T01:28:34.654Z,6.69
2022-11-02T01:29:55.806Z,6.00
2022-11-02T01:31:16.904Z,6.43
2022-11-02T01:32:37.967Z,6.47
2022-11-02T01:33:59.757Z,6.43
2022-11-02T01:35:21.159Z,6.37
2022-11-02T01:36:44.008Z,6.18
2022-11-02T01:39:26.863Z,6.56
2022-11-02T01:40:50.036Z,7.03
2022-11-02T01:43:32.441Z,6.34
2022-11-02T01:44:54.007Z,6.93
2022-11-02T01:46:21.897Z,6.91
2022-11-02T01:47:45.542Z,6.77
2022-11-02T01:49:09.684Z,7.31
2022-11-02T01:50:30.806Z,6.79
2022-11-02T01:52:06.513Z,7.22
2022-11-02T01:53:28.729Z,6.76
2022-11-02T01:56:02.870Z,6.62
2022-11-02T01:57:24.574Z,7.04
2022-11-02T01:58:48.017Z,6.57
2022-11-02T02:01:22.783Z,6.96
2022-11-02T02:04:00.167Z,5.06
2022-11-02T02:05:22.478Z,6.38
2022-11-02T02:06:43.652Z,6.64
2022-11-02T02:08:05.320Z,6.89
2022-11-02T02:09:27.000Z,6.59
2022-11-02T02:10:49.345Z,6.92
2022-11-02T02:12:11.560Z,6.52
2022-11-02T02:13:32.605Z,6.82
2022-11-02T02:14:53.979Z,7.06
2022-11-02T02:16:19.748Z,6.77
2022-11-02T02:17:50.680Z,6.69
2022-11-02T02:19:41.573Z,6.87
2022-11-02T02:21:12.761Z,6.84
2022-11-02T02:23:13.997Z,6.82
2022-11-02T02:24:54.257Z,6.77
2022-11-02T02:28:29.148Z,6.92
2022-11-02T02:30:06.415Z,6.17
2022-11-02T02:33:32.170Z,6.97
2022-11-02T02:34:56.490Z,6.63
2022-11-02T02:36:25.615Z,6.96
2022-11-02T02:37:57.899Z,6.79
2022-11-02T02:39:37.684Z,6.94
2022-11-02T02:41:08.507Z,7.23
2022-11-02T02:42:36.083Z,6.81
2022-11-02T02:43:57.426Z,6.56
2022-11-02T02:45:21.859Z,6.46
2022-11-02T02:46:46.655Z,7.17
2022-11-02T02:48:16.033Z,6.48
2022-11-02T02:49:43.338Z,6.54
2022-11-02T02:51:07.154Z,7.47
2022-11-02T02:52:28.924Z,6.94
2022-11-02T02:53:53.539Z,6.90
2022-11-02T02:55:22.725Z,6.98
2022-11-02T02:56:50.061Z,6.83
2022-11-02T02:58:19.377Z,6.74
2022-11-02T02:59:42.002Z,7.98
2022-11-02T03:01:03.280Z,7.52
2022-11-02T03:02:27.285Z,7.10
2022-11-02T03:03:48.759Z,7.52
2022-11-02T03:05:26.598Z,7.31
2022-11-02T03:06:49.960Z,7.12
2022-11-02T03:08:12.733Z,6.64
2022-11-02T03:09:40.832Z,7.25
2022-11-02T03:11:11.757Z,6.56
2022-11-02T03:12:36.944Z,7.30
2022-11-02T03:14:16.381Z,7.44
2022-11-02T03:17:03.419Z,7.73
2022-11-02T03:18:37.085Z,6.87
2022-11-02T03:20:17.291Z,7.04
2022-11-02T03:21:43.523Z,6.94
2022-11-02T03:23:26.215Z,6.22
2022-11-02T03:25:08.595Z,5.14
2022-11-02T03:26:49.801Z,6.61
2022-11-02T03:28:35.404Z,6.98
2022-11-02T03:30:14.219Z,6.91
2022-11-02T03:31:41.165Z,7.35
2022-11-02T03:33:05.735Z,6.70
2022-11-02T03:34:36.350Z,6.88
2022-11-02T03:36:08.181Z,6.36
2022-11-02T03:37:33.687Z,6.78
2022-11-02T03:39:04.471Z,6.60
2022-11-02T03:40:30.980Z,6.64
2022-11-02T03:41:53.316Z,6.22
2022-11-02T03:43:14.379Z,6.77
2022-11-02T03:44:37.526Z,6.51
2022-11-02T03:46:00.300Z,6.25
2022-11-02T03:47:21.600Z,6.56
2022-11-02T03:48:45.542Z,6.48
2022-11-02T03:50:07.788Z,6.59
2022-11-02T03:51:29.427Z,4.88
2022-11-02T03:53:03.148Z,6.16
2022-11-02T03:54:48.669Z,6.67
2022-11-02T03:56:13.911Z,6.33
2022-11-02T03:57:38.917Z,6.22
2022-11-02T03:59:00.024Z,6.62
2022-11-02T04:00:22.516Z,6.52
2022-11-02T04:01:45.081Z,6.24
2022-11-02T04:04:27.691Z,6.01
2022-11-02T04:05:49.009Z,6.38
2022-11-02T04:07:10.048Z,6.50
2022-11-02T04:08:36.089Z,6.61
2022-11-02T04:09:57.312Z,6.27
2022-11-02T04:11:18.985Z,6.53
2022-11-02T04:12:39.932Z,6.47
2022-11-02T04:14:01.384Z,6.61
2022-11-02T04:15:22.395Z,6.86
2022-11-02T04:16:43.921Z,6.71
2022-11-02T04:18:05.338Z,7.22
2022-11-02T04:19:26.999Z,7.13
2022-11-02T04:20:54.745Z,7.16
2022-11-02T04:22:16.276Z,7.51
2022-11-02T04:23:37.279Z,7.33
2022-11-02T04:24:58.819Z,7.07
2022-11-02T04:26:20.268Z,7.49
2022-11-02T04:27:41.817Z,7.12
2022-11-02T04:29:03.183Z,7.52
2022-11-02T04:30:24.406Z,7.34
2022-11-02T04:31:45.577Z,7.67
2022-11-02T04:33:06.488Z,7.28
2022-11-02T04:34:27.523Z,7.31
2022-11-02T04:35:49.044Z,7.24
2022-11-02T04:37:10.347Z,7.34
2022-11-02T04:38:31.692Z,7.80
2022-11-02T04:39:53.188Z,7.87
2022-11-02T04:41:17.540Z,7.47
2022-11-02T04:42:38.638Z,8.24
2022-11-02T04:44:00.210Z,7.62
2022-11-02T04:45:21.680Z,8.24
2022-11-02T04:46:43.318Z,8.12
2022-11-02T04:48:06.855Z,7.72
2022-11-02T04:49:30.798Z,8.26
2022-11-02T04:50:52.055Z,7.78
2022-11-02T04:52:13.881Z,8.29
2022-11-02T04:53:35.152Z,8.81
2022-11-02T04:54:56.204Z,8.17
2022-11-02T04:56:17.815Z,8.50
2022-11-02T04:57:43.099Z,8.82
2022-11-02T04:59:04.212Z,9.09
2022-11-02T05:00:25.818Z,9.17
2022-11-02T05:01:47.430Z,9.02
2022-11-02T05:03:11.498Z,8.14
2022-11-02T05:05:55.594Z,9.39
2022-11-02T05:07:16.836Z,9.27
2022-11-02T05:08:38.340Z,9.53
2022-11-02T05:09:59.378Z,9.72
2022-11-02T05:11:21.949Z,9.78
2022-11-02T05:12:43.276Z,10.14
2022-11-02T05:14:04.680Z,10.66
2022-11-02T05:15:27.732Z,9.57
2022-11-02T05:16:49.561Z,10.02
2022-11-02T05:18:14.810Z,10.29
2022-11-02T05:19:33.788Z,10.07
2022-11-02T05:20:58.488Z,9.36
2022-11-02T05:22:19.603Z,9.31
2022-11-02T05:23:41.358Z,9.66
2022-11-02T05:25:03.948Z,10.32
2022-11-02T05:26:25.364Z,9.53
2022-11-02T05:27:46.726Z,9.68
2022-11-02T05:29:09.102Z,9.38
2022-11-02T05:30:30.768Z,9.67
2022-11-02T05:31:52.673Z,10.22
2022-11-02T05:33:13.757Z,9.96
2022-11-02T05:34:35.201Z,10.26
2022-11-02T05:35:57.655Z,10.37
2022-11-02T05:37:18.873Z,10.38
2022-11-02T05:40:02.865Z,11.12
2022-11-02T05:41:25.753Z,10.43
2022-11-02T05:42:48.192Z,11.16
2022-11-02T05:44:09.435Z,10.38
2022-11-02T05:45:30.833Z,10.87
2022-11-02T05:46:53.084Z,9.88
2022-11-02T05:48:14.226Z,11.81
2022-11-02T05:49:35.887Z,10.98
2022-11-02T05:51:04.595Z,11.13
2022-11-02T05:52:25.733Z,11.44
2022-11-02T05:53:48.890Z,11.03
2022-11-02T05:56:37.932Z,12.03
2022-11-02T05:58:01.097Z,11.86
2022-11-02T05:59:22.668Z,11.18
2022-11-02T06:00:44.152Z,11.26
2022-11-02T06:02:11.902Z,11.48
2022-11-02T06:03:40.567Z,11.09
2022-11-02T06:05:09.164Z,11.76
2022-11-02T06:06:32.618Z,11.73
2022-11-02T06:09:23.052Z,10.91
2022-11-02T06:10:44.759Z,10.67
2022-11-02T06:12:06.571Z,11.34
2022-11-02T06:13:35.794Z,11.38
2022-11-02T06:14:57.125Z,11.09
2022-11-02T06:16:22.942Z,11.56
2022-11-02T06:17:48.644Z,11.31
2022-11-02T06:19:23.141Z,11.47
2022-11-02T06:20:52.239Z,11.48
2022-11-02T06:22:13.266Z,11.94
2022-11-02T06:23:36.066Z,12.23
2022-11-02T06:25:04.557Z,11.71
2022-11-02T06:26:27.164Z,11.33
2022-11-02T06:27:51.942Z,11.21
2022-11-02T06:29:13.248Z,11.38
2022-11-02T06:30:34.933Z,11.14
2022-11-02T06:31:56.275Z,10.67
2022-11-02T06:33:17.727Z,11.99
2022-11-02T06:34:39.249Z,11.78
2022-11-02T06:36:00.960Z,11.64
2022-11-02T06:37:22.447Z,11.29
2022-11-02T06:38:43.889Z,11.68
2022-11-02T06:40:06.558Z,11.26
2022-11-02T06:41:28.576Z,11.51
2022-11-02T06:44:08.961Z,11.50
2022-11-02T06:45:30.174Z,12.18
2022-11-02T06:46:51.595Z,11.83
2022-11-02T06:48:12.977Z,12.17
2022-11-02T06:49:34.791Z,12.06
2022-11-02T06:50:59.115Z,11.41
2022-11-02T06:52:20.664Z,12.10
2022-11-02T06:53:42.699Z,12.07
2022-11-02T06:55:06.091Z,11.62
2022-11-02T06:56:27.422Z,11.60
2022-11-02T06:57:51.650Z,11.79
2022-11-02T06:59:12.909Z,12.53
2022-11-02T07:01:49.228Z,13.16
2022-11-02T07:03:11.294Z,11.80
2022-11-02T07:04:33.928Z,12.18
2022-11-02T07:05:55.367Z,11.82
2022-11-02T07:07:16.512Z,11.96
2022-11-02T07:08:37.983Z,13.14
2022-11-02T07:09:59.511Z,12.17
2022-11-02T07:11:20.827Z,12.42
2022-11-02T07:12:42.270Z,12.92
2022-11-02T07:14:03.461Z,12.22
2022-11-02T07:15:25.417Z,12.41
2022-11-02T07:16:47.193Z,12.22
2022-11-02T07:18:09.673Z,12.15
2022-11-02T07:19:31.174Z,11.83
2022-11-02T07:20:52.965Z,12.41
2022-11-02T07:22:14.102Z,11.91
2022-11-02T07:23:38.186Z,11.94
2022-11-02T07:24:59.534Z,12.07
2022-11-02T07:26:21.110Z,11.81
2022-11-02T07:27:44.033Z,11.97
2022-11-02T07:31:46.383Z,9.43
2022-11-02T07:33:08.386Z,12.58
2022-11-02T07:34:29.896Z,12.36
2022-11-02T07:35:51.450Z,12.87
2022-11-02T07:37:12.717Z,11.72
2022-11-02T07:38:34.143Z,12.08
2022-11-02T07:39:55.763Z,12.19
2022-11-02T07:41:16.908Z,12.06
2022-11-02T07:42:44.935Z,11.92
2022-11-02T07:44:07.539Z,12.07
2022-11-02T07:45:29.841Z,13.05
2022-11-02T07:48:12.324Z,11.23
2022-11-02T07:49:33.628Z,10.88
2022-11-02T07:50:58.178Z,12.06
2022-11-02T07:52:19.471Z,11.64
2022-11-02T07:54:53.808Z,11.54
2022-11-02T07:56:20.935Z,11.46
2022-11-02T07:57:42.246Z,11.48
2022-11-02T07:59:06.315Z,11.66
2022-11-02T08:00:32.309Z,11.13
2022-11-02T08:01:55.117Z,11.27
2022-11-02T08:03:17.707Z,10.49
2022-11-02T08:04:42.302Z,10.74
2022-11-02T08:06:02.722Z,10.36
2022-11-02T08:07:25.201Z,11.14
2022-11-02T08:08:46.203Z,10.00
2022-11-02T08:10:08.094Z,9.66
2022-11-02T08:11:29.420Z,9.43
2022-11-02T08:12:51.235Z,9.65
2022-11-02T08:14:12.636Z,9.69
2022-11-02T08:15:35.040Z,10.85
2022-11-02T08:16:56.816Z,10.06
2022-11-02T08:18:22.651Z,9.76
2022-11-02T08:19:43.862Z,9.55
2022-11-02T08:21:06.145Z,9.12
2022-11-02T08:22:27.765Z,9.43
2022-11-02T08:23:51.014Z,9.31
2022-11-02T08:25:12.565Z,9.71
2022-11-02T08:26:34.459Z,8.89
2022-11-02T08:27:57.226Z,9.12
2022-11-02T08:29:18.856Z,9.56
2022-11-02T08:30:40.204Z,8.31
2022-11-02T08:32:01.644Z,8.59
2022-11-02T08:33:23.015Z,8.51
2022-11-02T08:34:45.161Z,9.61
2022-11-02T08:36:24.436Z,9.38
2022-11-02T08:37:55.679Z,8.48
2022-11-02T08:41:01.122Z,7.75
2022-11-02T08:42:26.841Z,8.19
2022-11-02T08:43:54.765Z,8.09
2022-11-02T08:45:15.963Z,7.73
2022-11-02T08:46:45.830Z,7.48
2022-11-02T08:48:08.688Z,7.42
2022-11-02T08:50:45.762Z,8.02
2022-11-02T09:07:17.195Z,7.46
2022-11-02T09:08:40.022Z,7.88
2022-11-02T09:10:04.757Z,7.81
2022-11-02T09:11:26.162Z,7.97
2022-11-02T09:12:49.403Z,6.69
2022-11-02T09:14:37.051Z,7.94
2022-11-02T09:16:00.173Z,8.47
2022-11-02T09:17:21.834Z,8.75
2022-11-02T09:18:45.386Z,8.94
2022-11-02T09:20:10.234Z,8.50
2022-11-02T09:21:32.909Z,8.19
2022-11-02T09:26:53.002Z,8.63
2022-11-02T09:28:16.215Z,8.02
2022-11-02T09:29:37.857Z,8.05
2022-11-02T09:31:03.862Z,8.71
2022-11-02T09:32:32.014Z,8.68
2022-11-02T09:33:53.803Z,8.07
2022-11-02T09:35:16.109Z,8.11
2022-11-02T09:36:39.517Z,8.32
2022-11-02T09:38:06.658Z,7.87
2022-11-02T09:39:31.584Z,7.66
2022-11-02T09:41:05.215Z,7.82
2022-11-02T09:42:53.923Z,8.34
2022-11-02T09:56:58.392Z,7.69
2022-11-02T10:13:52.541Z,9.57
2022-11-02T10:15:35.582Z,9.51
2022-11-02T10:21:08.472Z,9.74
2022-11-02T10:22:42.609Z,9.82
2022-11-02T10:27:29.829Z,8.07
2022-11-02T10:30:20.220Z,9.39
2022-11-02T10:31:42.003Z,10.00
2022-11-02T10:33:04.320Z,10.25
2022-11-02T10:37:44.652Z,10.04
2022-11-02T10:39:31.231Z,9.72
2022-11-02T10:41:14.708Z,9.65
2022-11-02T10:44:20.933Z,9.56
2022-11-02T10:47:18.023Z,10.02
2022-11-02T10:49:01.330Z,9.94
2022-11-02T10:50:50.372Z,9.68
2022-11-02T10:52:15.662Z,10.02
2022-11-02T10:53:42.665Z,10.18
2022-11-02T10:55:04.882Z,9.92
2022-11-02T10:57:47.194Z,9.93
2022-11-02T10:59:13.442Z,10.10
2022-11-02T11:00:36.344Z,10.39
2022-11-02T11:20:27.939Z,10.51
2022-11-02T11:21:51.277Z,10.81
2022-11-02T11:23:23.690Z,11.57
2022-11-02T11:24:46.392Z,11.49
2022-11-02T11:26:14.554Z,11.25
2022-11-02T11:27:51.583Z,10.92
2022-11-02T11:29:22.014Z,10.40
2022-11-02T11:30:59.647Z,11.19
2022-11-02T11:32:15.816Z,10.72
2022-11-02T11:33:56.683Z,11.11
2022-11-02T11:35:18.673Z,10.46
2022-11-02T11:36:41.313Z,10.42
2022-11-02T11:38:05.062Z,11.29
2022-11-02T11:39:27.714Z,10.80
2022-11-02T11:42:23.244Z,12.13
2022-11-02T11:43:44.459Z,11.34
2022-11-02T11:45:25.386Z,11.14
2022-11-02T11:46:52.307Z,10.57
2022-11-02T11:48:20.128Z,10.33
2022-11-02T11:51:30.664Z,12.39
2022-11-02T12:10:22.181Z,10.71
2022-11-02T20:08:30.903Z,9.37
2022-11-02T20:09:53.473Z,9.94
2022-11-02T20:12:37.973Z,9.41
2022-11-02T20:14:00.153Z,9.37
2022-11-02T20:15:21.142Z,10.34
2022-11-02T20:16:42.589Z,9.98
2022-11-02T20:18:19.147Z,9.23
2022-11-02T20:19:27.556Z,9.94
2022-11-02T20:20:48.816Z,8.24
2022-11-02T20:22:10.186Z,8.93
2022-11-02T20:23:31.759Z,8.73
2022-11-02T20:24:53.203Z,8.39
2022-11-02T20:26:24.857Z,8.97
2022-11-02T20:27:46.006Z,8.41
2022-11-02T20:29:10.765Z,8.97
2022-11-02T20:30:31.034Z,8.60
2022-11-02T20:31:52.327Z,8.92
2022-11-02T20:33:13.461Z,9.92
2022-11-02T20:34:35.995Z,9.25
2022-11-02T20:35:57.094Z,9.32
2022-11-02T20:37:18.722Z,9.18
2022-11-02T20:38:40.767Z,9.50
2022-11-02T20:40:02.267Z,9.55
2022-11-02T20:41:24.008Z,9.69
2022-11-02T20:42:47.796Z,9.59
2022-11-02T20:44:09.780Z,9.75
2022-11-02T20:45:30.912Z,9.29
2022-11-02T20:46:53.519Z,9.62
2022-11-02T20:49:49.916Z,9.72
2022-11-02T20:50:59.328Z,9.48
2022-11-02T20:52:20.712Z,9.82
2022-11-02T20:53:41.761Z,9.74
2022-11-02T20:55:04.859Z,9.58
2022-11-02T20:57:48.179Z,9.52
2022-11-02T20:59:09.535Z,9.63
2022-11-02T21:00:31.337Z,9.48
2022-11-02T21:01:54.995Z,9.66
2022-11-02T21:03:16.970Z,9.46
2022-11-02T21:04:38.249Z,9.29
2022-11-02T21:06:06.152Z,9.30
2022-11-02T21:07:27.405Z,8.72
2022-11-02T21:08:48.527Z,9.23
2022-11-02T21:10:10.107Z,9.68
2022-11-02T21:11:31.438Z,10.01
2022-11-02T21:12:52.407Z,9.51
2022-11-02T21:14:13.520Z,8.68
2022-11-02T21:15:35.007Z,8.91
2022-11-02T21:16:56.254Z,8.71
2022-11-02T21:18:17.719Z,9.15
2022-11-02T21:19:39.256Z,9.31
2022-11-02T21:21:11.274Z,9.14
2022-11-02T21:22:32.495Z,9.16
2022-11-02T21:23:54.545Z,8.83
2022-11-02T21:25:16.089Z,8.79
2022-11-02T21:26:37.495Z,9.04
2022-11-02T21:27:59.045Z,8.95
2022-11-02T21:29:20.053Z,8.93
2022-11-02T21:30:41.077Z,9.10
2022-11-02T21:32:02.248Z,8.83
2022-11-02T21:33:25.313Z,9.16
2022-11-02T21:34:46.235Z,9.70
2022-11-02T21:36:08.371Z,9.41
2022-11-02T21:37:29.817Z,8.96
2022-11-02T21:38:51.170Z,8.93
2022-11-02T21:40:13.491Z,9.51
2022-11-02T21:41:34.482Z,9.41
2022-11-02T21:42:55.432Z,9.31
2022-11-02T21:44:17.002Z,9.91
2022-11-02T21:45:38.354Z,9.03
2022-11-02T21:46:59.558Z,9.75
2022-11-02T21:48:21.138Z,9.94
2022-11-02T21:49:42.487Z,8.97
2022-11-02T21:51:06.686Z,9.77
2022-11-02T21:52:27.885Z,9.28
2022-11-02T21:53:50.107Z,9.61
2022-11-02T21:55:11.506Z,9.91
2022-11-02T21:56:32.884Z,9.47
2022-11-02T21:57:54.108Z,10.04
2022-11-02T21:59:15.428Z,10.11
2022-11-02T22:00:36.414Z,9.35
2022-11-02T22:01:57.982Z,9.38
2022-11-02T22:03:19.162Z,9.01
2022-11-02T22:04:40.632Z,9.65
2022-11-02T22:06:02.098Z,9.86
2022-11-02T22:07:23.662Z,9.91
2022-11-02T22:08:44.976Z,9.48
2022-11-02T22:10:20.726Z,9.74
2022-11-02T22:11:48.833Z,9.33
2022-11-02T22:13:17.021Z,9.79
2022-11-02T22:14:38.504Z,9.53
2022-11-02T22:17:59.833Z,7.41
2022-11-02T22:19:33.941Z,9.78
2022-11-02T22:21:02.561Z,10.19
2022-11-02T22:22:37.015Z,9.88
2022-11-02T22:24:06.115Z,10.09
2022-11-02T22:25:40.252Z,10.04
2022-11-02T22:27:08.730Z,9.29
2022-11-02T22:28:45.402Z,9.61
2022-11-02T22:30:13.668Z,9.33
2022-11-02T22:31:48.432Z,9.66
2022-11-02T22:33:17.568Z,8.78
2022-11-02T22:34:51.258Z,9.47
2022-11-02T22:36:21.385Z,9.13
2022-11-02T22:37:56.194Z,8.95
2022-11-02T22:39:23.353Z,8.92
2022-11-02T22:42:26.116Z,8.69
2022-11-02T22:44:04.598Z,8.33
2022-11-02T22:45:32.095Z,8.96
2022-11-02T22:47:06.679Z,9.18
2022-11-02T22:48:33.882Z,9.09
2022-11-02T22:50:07.759Z,9.16
2022-11-02T22:51:30.359Z,8.59
2022-11-02T22:52:52.631Z,8.85
2022-11-02T22:54:15.227Z,9.07
2022-11-02T22:55:36.554Z,9.06
2022-11-02T22:56:57.911Z,8.32
2022-11-02T22:58:19.213Z,8.52
2022-11-02T22:59:40.280Z,8.87
2022-11-02T23:01:01.349Z,8.92
2022-11-02T23:02:22.856Z,8.86
2022-11-02T23:05:07.130Z,9.44
2022-11-02T23:07:46.485Z,9.27
2022-11-02T23:09:09.989Z,9.13
2022-11-02T23:10:31.521Z,9.32
2022-11-02T23:11:52.948Z,8.91
2022-11-02T23:13:14.386Z,8.89
2022-11-02T23:14:35.407Z,9.22
2022-11-02T23:16:06.227Z,8.34
2022-11-02T23:17:27.352Z,8.41
2022-11-02T23:19:00.337Z,8.42
2022-11-02T23:20:21.701Z,8.88
2022-11-02T23:23:15.856Z,9.24
2022-11-02T23:26:10.737Z,8.17
2022-11-02T23:27:33.551Z,8.58
2022-11-02T23:28:54.712Z,8.09
2022-11-02T23:30:16.105Z,9.08
2022-11-02T23:31:37.125Z,8.37
2022-11-02T23:32:58.607Z,8.61
2022-11-02T23:34:20.000Z,8.72
2022-11-02T23:35:40.991Z,8.98
2022-11-02T23:37:06.922Z,8.77
2022-11-02T23:38:28.200Z,8.44
2022-11-02T23:39:49.728Z,9.01
2022-11-02T23:41:10.641Z,8.64
2022-11-02T23:42:31.885Z,9.03
2022-11-02T23:43:53.133Z,9.38
2022-11-02T23:45:14.901Z,8.95
2022-11-02T23:46:37.584Z,8.93
2022-11-02T23:47:58.628Z,9.09
2022-11-02T23:49:19.951Z,8.79
2022-11-02T23:50:41.297Z,9.02
2022-11-02T23:52:02.617Z,8.91
2022-11-02T23:53:23.819Z,9.01
2022-11-02T23:54:44.803Z,9.23
2022-11-02T23:57:17.748Z,10.10
2022-11-02T23:58:39.311Z,9.72
